Time;durP1;ratioP1;P1;durP2;ratioP2;P2;SDS_P1;SDS_P2;PMS_P1;PMS_P2;Temp;Humidity;BMP_temperature;BMP_pressure;BME280_temperature;BME280_humidity;BME280_pressure;Samples;Min_cycle;Max_cycle;Signal;HPM_P1;HPM_P2
2021/10/14 00:01:10;;;;;;;13.23;9.05;;;;;;;;;;4955170;29;20463;-68
2021/10/14 00:03:36;;;;;;;12.15;9.05;;;;;;;;;;4954874;29;20077;-69
2021/10/14 00:06:03;;;;;;;12.80;9.85;;;;;;;;;;4954833;29;20102;-68
2021/10/14 00:08:29;;;;;;;12.13;9.40;;;;;;;;;;4955147;29;20106;-68
2021/10/14 00:10:56;;;;;;;13.10;9.25;;;;;;;;;;4954794;29;20062;-68
2021/10/14 00:13:23;;;;;;;9.52;7.90;;;;;;;;;;4937627;29;20043;-69
2021/10/14 00:15:49;;;;;;;11.57;8.10;;;;;;;;;;4954672;29;20483;-68
2021/10/14 00:18:16;;;;;;;12.02;8.68;;;;;;;;;;4938092;29;20047;-68
2021/10/14 00:20:43;;;;;;;10.10;7.70;;;;;;;;;;4953191;28;20114;-69
2021/10/14 00:23:09;;;;;;;11.18;9.02;;;;;;;;;;4969183;28;20498;-69
2021/10/14 00:25:36;;;;;;;11.52;8.18;;;;;;;;;;4954656;29;20114;-68
2021/10/14 00:28:03;;;;;;;10.85;8.40;;;;;;;;;;4937330;29;20118;-69
2021/10/14 00:30:30;;;;;;;12.50;9.10;;;;;;;;;;4953817;28;20058;-68
2021/10/14 00:32:57;;;;;;;15.32;8.63;;;;;;;;;;4954485;29;20059;-68
2021/10/14 00:35:23;;;;;;;13.00;8.05;;;;;;;;;;4954558;29;20055;-69
2021/10/14 00:37:52;;;;;;;13.00;9.73;;;;;;;;;;4954203;29;20083;-68
2021/10/14 00:40:19;;;;;;;14.30;8.88;;;;;;;;;;4954392;29;20055;-68
2021/10/14 00:42:46;;;;;;;13.35;9.15;;;;;;;;;;4953929;29;20570;-68
2021/10/14 00:45:13;;;;;;;16.42;9.68;;;;;;;;;;4954289;29;20400;-68
2021/10/14 00:47:40;;;;;;;15.02;8.70;;;;;;;;;;4953834;29;20050;-68
2021/10/14 00:50:08;;;;;;;18.23;9.88;;;;;;;;;;4954143;29;20105;-67
2021/10/14 00:52:36;;;;;;;16.77;10.45;;;;;;;;;;4953880;29;20143;-68
2021/10/14 00:55:03;;;;;;;16.75;9.55;;;;;;;;;;4954077;29;20466;-68
2021/10/14 00:57:30;;;;;;;14.85;8.70;;;;;;;;;;4954102;29;20043;-69
2021/10/14 00:59:57;;;;;;;13.27;8.93;;;;;;;;;;4940519;29;20577;-67
2021/10/14 01:02:24;;;;;;;12.07;8.40;;;;;;;;;;4937032;29;20051;-69
2021/10/14 01:04:54;;;;;;;12.63;8.75;;;;;;;;;;4953969;29;20059;-68
2021/10/14 01:07:21;;;;;;;8.98;7.55;;;;;;;;;;4954299;29;20465;-68
2021/10/14 01:09:48;;;;;;;11.32;8.02;;;;;;;;;;4953908;29;20055;-68
2021/10/14 01:12:15;;;;;;;11.50;7.70;;;;;;;;;;4953994;29;20051;-69
2021/10/14 01:14:41;;;;;;;9.80;7.72;;;;;;;;;;4936838;29;20106;-68
2021/10/14 01:17:08;;;;;;;11.07;8.25;;;;;;;;;;4954072;29;20055;-69
2021/10/14 01:19:39;;;;;;;10.90;7.57;;;;;;;;;;4954337;29;20055;-68
2021/10/14 01:22:06;;;;;;;9.15;7.25;;;;;;;;;;4954582;29;20474;-68
2021/10/14 01:24:32;;;;;;;7.38;6.32;;;;;;;;;;4954322;29;20074;-70
2021/10/14 01:27:06;;;;;;;8.60;7.25;;;;;;;;;;4954011;29;20043;-68
2021/10/14 01:29:33;;;;;;;9.00;7.88;;;;;;;;;;4954124;29;20047;-68
2021/10/14 01:32:02;;;;;;;11.73;8.07;;;;;;;;;;4953726;29;20561;-69
2021/10/14 01:34:28;;;;;;;10.75;8.40;;;;;;;;;;4954248;29;20141;-68
2021/10/14 01:36:55;;;;;;;10.27;8.30;;;;;;;;;;4953999;29;20051;-69
2021/10/14 01:39:21;;;;;;;8.75;7.57;;;;;;;;;;4953535;29;20102;-68
2021/10/14 01:41:49;;;;;;;9.98;7.60;;;;;;;;;;4954154;28;20098;-68
2021/10/14 01:44:16;;;;;;;11.57;8.30;;;;;;;;;;4957647;29;20082;-69
2021/10/14 01:46:43;;;;;;;8.50;7.30;;;;;;;;;;4938268;29;20063;-68
2021/10/14 01:49:09;;;;;;;9.25;7.07;;;;;;;;;;4938396;29;20464;-68
2021/10/14 01:51:36;;;;;;;9.63;7.20;;;;;;;;;;4937923;29;20051;-68
2021/10/14 01:54:02;;;;;;;13.68;7.72;;;;;;;;;;4943029;29;20110;-67
2021/10/14 01:56:29;;;;;;;13.98;8.48;;;;;;;;;;4957216;29;20059;-70
2021/10/14 01:58:55;;;;;;;22.83;8.27;;;;;;;;;;4957526;29;20047;-69
2021/10/14 02:01:22;;;;;;;25.90;8.93;;;;;;;;;;4957090;29;20131;-68
2021/10/14 02:03:49;;;;;;;18.15;7.43;;;;;;;;;;4956877;29;20055;-69
2021/10/14 02:06:16;;;;;;;14.52;8.32;;;;;;;;;;4956865;29;20051;-69
2021/10/14 02:08:42;;;;;;;15.88;7.80;;;;;;;;;;4956698;29;20047;-68
2021/10/14 02:11:09;;;;;;;13.48;7.50;;;;;;;;;;4957188;29;20055;-68
2021/10/14 02:13:36;;;;;;;13.00;7.80;;;;;;;;;;4956761;29;20102;-69
2021/10/14 02:16:03;;;;;;;11.25;8.52;;;;;;;;;;4957129;29;20051;-68
2021/10/14 02:18:30;;;;;;;10.70;7.28;;;;;;;;;;4956760;29;20048;-69
2021/10/14 02:20:57;;;;;;;9.55;7.28;;;;;;;;;;4956911;29;20109;-68
2021/10/14 02:23:23;;;;;;;8.98;7.20;;;;;;;;;;4956702;29;20078;-68
2021/10/14 02:25:50;;;;;;;9.43;7.13;;;;;;;;;;4956698;29;20055;-69
2021/10/14 02:28:16;;;;;;;10.85;7.90;;;;;;;;;;4956489;29;20047;-68
2021/10/14 02:30:43;;;;;;;10.18;7.10;;;;;;;;;;4956478;29;20051;-68
2021/10/14 02:33:10;;;;;;;12.18;7.93;;;;;;;;;;4956401;29;20478;-68
2021/10/14 02:35:37;;;;;;;14.15;7.97;;;;;;;;;;4956298;29;20051;-68
2021/10/14 02:38:04;;;;;;;10.93;7.38;;;;;;;;;;4956840;29;20051;-68
2021/10/14 02:40:30;;;;;;;13.18;8.07;;;;;;;;;;4956322;29;20133;-68
2021/10/14 02:42:57;;;;;;;11.45;7.82;;;;;;;;;;4956360;29;20109;-68
2021/10/14 02:45:24;;;;;;;12.75;8.40;;;;;;;;;;4956257;29;20047;-68
2021/10/14 02:47:50;;;;;;;16.10;7.80;;;;;;;;;;4956270;29;20494;-68
2021/10/14 02:50:17;;;;;;;13.90;8.15;;;;;;;;;;4956071;29;20047;-69
2021/10/14 02:52:43;;;;;;;24.88;8.63;;;;;;;;;;4956176;29;20395;-68
2021/10/14 02:55:10;;;;;;;13.02;8.27;;;;;;;;;;4955443;29;20137;-68
2021/10/14 02:57:37;;;;;;;10.48;8.07;;;;;;;;;;4956207;29;20094;-68
2021/10/14 03:00:05;;;;;;;12.77;8.20;;;;;;;;;;4956277;29;20055;-68
2021/10/14 03:02:31;;;;;;;15.52;9.05;;;;;;;;;;4956149;29;20047;-69
2021/10/14 03:07:30;;;;;;;20.10;8.98;;;;;;;;;;4896357;29;20121;-69
2021/10/14 03:09:56;;;;;;;11.57;8.60;;;;;;;;;;4899009;29;20476;-71
2021/10/14 03:12:23;;;;;;;12.40;8.95;;;;;;;;;;4898628;29;20063;-70
2021/10/14 03:14:50;;;;;;;13.50;9.65;;;;;;;;;;4898813;29;20504;-71
2021/10/14 03:17:16;;;;;;;11.50;8.93;;;;;;;;;;4898918;29;20052;-71
2021/10/14 03:19:43;;;;;;;12.88;9.10;;;;;;;;;;4898243;29;20425;-70
2021/10/14 03:22:09;;;;;;;12.02;9.18;;;;;;;;;;4898584;29;20107;-70
2021/10/14 03:24:36;;;;;;;13.65;9.07;;;;;;;;;;4898705;29;20401;-71
2021/10/14 03:27:03;;;;;;;11.57;9.75;;;;;;;;;;4898431;29;20052;-71
2021/10/14 03:29:29;;;;;;;11.07;8.95;;;;;;;;;;4898597;29;20108;-70
2021/10/14 03:31:56;;;;;;;10.30;8.20;;;;;;;;;;4898310;29;20135;-70
2021/10/14 03:34:22;;;;;;;12.43;9.00;;;;;;;;;;4898531;29;20056;-70
2021/10/14 03:36:49;;;;;;;10.93;8.57;;;;;;;;;;4898219;29;20064;-70
2021/10/14 03:39:16;;;;;;;11.30;8.52;;;;;;;;;;4898752;29;20453;-69
2021/10/14 03:41:42;;;;;;;12.90;8.80;;;;;;;;;;4898069;29;20056;-70
2021/10/14 03:44:11;;;;;;;11.10;8.25;;;;;;;;;;4881982;29;20053;-70
2021/10/14 03:46:37;;;;;;;11.27;8.43;;;;;;;;;;4898135;29;20448;-69
2021/10/14 03:49:04;;;;;;;10.75;8.68;;;;;;;;;;4898091;29;20052;-70
2021/10/14 03:51:31;;;;;;;11.60;8.15;;;;;;;;;;4897896;29;20048;-71
2021/10/14 03:53:58;;;;;;;9.70;7.65;;;;;;;;;;4898206;29;20423;-70
2021/10/14 03:56:26;;;;;;;12.27;9.38;;;;;;;;;;4898170;29;20053;-71
2021/10/14 03:58:53;;;;;;;11.40;8.80;;;;;;;;;;4897952;29;20053;-70
2021/10/14 04:01:19;;;;;;;12.00;9.35;;;;;;;;;;4897948;29;20508;-70
2021/10/14 04:03:47;;;;;;;13.10;8.63;;;;;;;;;;4897800;29;20060;-70
2021/10/14 04:06:14;;;;;;;10.98;7.80;;;;;;;;;;4897873;29;20139;-71
2021/10/14 04:08:41;;;;;;;10.10;7.75;;;;;;;;;;4897212;29;20056;-71
2021/10/14 04:11:09;;;;;;;8.95;7.07;;;;;;;;;;4898271;29;20108;-70
2021/10/14 04:13:35;;;;;;;14.38;9.05;;;;;;;;;;4896408;29;20127;-71
2021/10/14 04:16:02;;;;;;;10.65;7.97;;;;;;;;;;4897737;29;20108;-71
2021/10/14 04:18:29;;;;;;;11.63;7.78;;;;;;;;;;4897783;29;20048;-71
2021/10/14 04:20:55;;;;;;;9.30;7.78;;;;;;;;;;4897790;29;20500;-71
2021/10/14 04:23:23;;;;;;;10.80;7.95;;;;;;;;;;4897621;29;20060;-72
2021/10/14 04:25:50;;;;;;;11.23;8.70;;;;;;;;;;4897346;29;20500;-71
2021/10/14 04:28:17;;;;;;;9.68;7.63;;;;;;;;;;4897594;29;20052;-70
2021/10/14 04:30:44;;;;;;;14.23;8.43;;;;;;;;;;4897559;29;20476;-71
2021/10/14 04:33:11;;;;;;;11.20;8.77;;;;;;;;;;4897216;29;20053;-71
2021/10/14 04:35:39;;;;;;;13.20;8.80;;;;;;;;;;4880851;29;20053;-72
2021/10/14 04:38:06;;;;;;;10.15;8.43;;;;;;;;;;4880953;29;20048;-71
2021/10/14 04:40:32;;;;;;;12.63;8.43;;;;;;;;;;4897185;29;20175;-72
2021/10/14 04:42:59;;;;;;;12.20;8.63;;;;;;;;;;4896675;29;20112;-71
2021/10/14 04:45:26;;;;;;;13.18;8.77;;;;;;;;;;4896699;29;20108;-71
2021/10/14 04:47:52;;;;;;;9.95;8.48;;;;;;;;;;4896819;29;20464;-71
2021/10/14 04:50:19;;;;;;;10.80;8.50;;;;;;;;;;4896840;29;20064;-72
2021/10/14 04:52:45;;;;;;;12.88;9.15;;;;;;;;;;4896891;29;20477;-72
2021/10/14 04:55:12;;;;;;;11.20;8.50;;;;;;;;;;4896716;29;20183;-71
2021/10/14 04:57:39;;;;;;;10.38;8.18;;;;;;;;;;4897153;29;20077;-71
2021/10/14 05:00:06;;;;;;;8.95;7.47;;;;;;;;;;4897090;29;20061;-70
2021/10/14 05:02:33;;;;;;;11.13;8.40;;;;;;;;;;4896846;29;20056;-71
2021/10/14 05:05:00;;;;;;;14.32;8.25;;;;;;;;;;4896806;29;20060;-71
2021/10/14 05:07:26;;;;;;;11.65;8.52;;;;;;;;;;4896871;29;20056;-72
2021/10/14 05:09:54;;;;;;;8.82;6.93;;;;;;;;;;4902847;29;20453;-71
2021/10/14 05:12:20;;;;;;;10.20;7.60;;;;;;;;;;4880594;29;20464;-72
2021/10/14 05:14:47;;;;;;;12.13;8.15;;;;;;;;;;4896808;29;20101;-71
2021/10/14 05:17:14;;;;;;;11.43;8.35;;;;;;;;;;4896346;29;20061;-71
2021/10/14 05:19:41;;;;;;;11.73;8.15;;;;;;;;;;4896699;29;20478;-71
2021/10/14 05:22:07;;;;;;;10.20;7.85;;;;;;;;;;4896539;29;20056;-71
2021/10/14 05:24:34;;;;;;;8.20;7.18;;;;;;;;;;4896562;29;20053;-70
2021/10/14 05:27:00;;;;;;;9.80;7.30;;;;;;;;;;4896622;29;20061;-71
2021/10/14 05:29:27;;;;;;;9.38;7.60;;;;;;;;;;4896722;29;20044;-71
2021/10/14 05:31:53;;;;;;;9.75;7.20;;;;;;;;;;4896624;29;20112;-71
2021/10/14 05:34:20;;;;;;;10.43;7.75;;;;;;;;;;4896741;29;20088;-70
2021/10/14 05:36:47;;;;;;;12.35;8.23;;;;;;;;;;4896563;29;20052;-71
2021/10/14 05:39:13;;;;;;;11.68;8.68;;;;;;;;;;4893853;29;20053;-71
2021/10/14 05:41:40;;;;;;;10.63;8.57;;;;;;;;;;4894282;29;20661;-71
2021/10/14 05:44:07;;;;;;;9.95;8.07;;;;;;;;;;4894951;29;20056;-71
2021/10/14 05:46:34;;;;;;;11.05;8.25;;;;;;;;;;4894617;29;20477;-71
2021/10/14 05:49:01;;;;;;;11.55;7.80;;;;;;;;;;4894745;29;20049;-71
2021/10/14 05:51:28;;;;;;;8.82;7.20;;;;;;;;;;4894078;29;20071;-70
2021/10/14 05:53:54;;;;;;;9.80;7.00;;;;;;;;;;4894569;29;20056;-72
2021/10/14 05:56:23;;;;;;;8.30;6.90;;;;;;;;;;4894723;29;20120;-71
2021/10/14 05:58:50;;;;;;;9.50;6.47;;;;;;;;;;4894612;29;20460;-71
2021/10/14 06:01:17;;;;;;;8.48;6.45;;;;;;;;;;4894663;29;20060;-69
2021/10/14 06:03:43;;;;;;;10.80;6.57;;;;;;;;;;4893971;29;20104;-71
2021/10/14 06:06:10;;;;;;;11.27;6.82;;;;;;;;;;4894766;29;20061;-70
2021/10/14 06:08:37;;;;;;;8.38;6.70;;;;;;;;;;4894708;29;20048;-71
2021/10/14 06:11:03;;;;;;;11.13;7.55;;;;;;;;;;4894937;29;20104;-71
2021/10/14 06:13:30;;;;;;;7.03;6.32;;;;;;;;;;4894377;29;20111;-71
2021/10/14 06:15:56;;;;;;;10.23;6.35;;;;;;;;;;4894657;29;20064;-72
2021/10/14 06:18:23;;;;;;;7.75;6.28;;;;;;;;;;4894267;29;20489;-70
2021/10/14 06:20:50;;;;;;;9.85;6.90;;;;;;;;;;4875798;29;20053;-70
2021/10/14 06:23:16;;;;;;;8.73;6.68;;;;;;;;;;4875671;29;20049;-70
2021/10/14 06:25:43;;;;;;;11.57;8.75;;;;;;;;;;4875573;29;20601;-70
2021/10/14 06:28:10;;;;;;;13.27;9.68;;;;;;;;;;4875875;29;20060;-70
2021/10/14 06:30:36;;;;;;;12.35;10.55;;;;;;;;;;4895003;29;20052;-71
2021/10/14 06:33:03;;;;;;;12.77;10.70;;;;;;;;;;4897584;29;20139;-71
2021/10/14 06:35:30;;;;;;;11.70;9.10;;;;;;;;;;4897696;29;20064;-70
2021/10/14 06:37:58;;;;;;;12.57;7.57;;;;;;;;;;4897861;29;20056;-70
2021/10/14 06:40:25;;;;;;;10.27;6.97;;;;;;;;;;4897556;29;20155;-71
2021/10/14 06:42:52;;;;;;;10.07;7.28;;;;;;;;;;4911386;29;20112;-70
2021/10/14 06:45:18;;;;;;;11.30;7.20;;;;;;;;;;4897375;29;20501;-69
2021/10/14 06:47:45;;;;;;;9.27;6.97;;;;;;;;;;4897555;29;20064;-70
2021/10/14 06:50:12;;;;;;;9.80;7.53;;;;;;;;;;4897602;29;20052;-70
2021/10/14 06:52:38;;;;;;;11.00;6.57;;;;;;;;;;4897202;29;20743;-70
2021/10/14 06:55:05;;;;;;;6.30;5.70;;;;;;;;;;4897504;29;20056;-71
2021/10/14 06:57:32;;;;;;;11.18;6.45;;;;;;;;;;4896945;29;20048;-70
2021/10/14 06:59:59;;;;;;;9.23;5.63;;;;;;;;;;4897256;29;20048;-70
2021/10/14 07:02:25;;;;;;;5.85;4.97;;;;;;;;;;4897132;29;20056;-70
2021/10/14 07:04:52;;;;;;;8.70;4.78;;;;;;;;;;4897361;29;20104;-70
2021/10/14 07:07:19;;;;;;;7.97;5.43;;;;;;;;;;4897091;29;20056;-70
2021/10/14 07:09:45;;;;;;;11.68;4.43;;;;;;;;;;4896815;29;20539;-70
2021/10/14 07:12:12;;;;;;;6.97;4.35;;;;;;;;;;4895420;29;20112;-71
2021/10/14 07:14:42;;;;;;;7.88;4.63;;;;;;;;;;4896683;29;20053;-69
2021/10/14 07:17:09;;;;;;;9.40;5.30;;;;;;;;;;4896969;29;20052;-72
2021/10/14 07:19:36;;;;;;;5.30;4.65;;;;;;;;;;4896701;29;20491;-72
2021/10/14 07:22:06;;;;;;;7.60;4.97;;;;;;;;;;4896377;29;20428;-71
2021/10/14 07:24:32;;;;;;;7.55;4.22;;;;;;;;;;4896702;29;20060;-68
2021/10/14 07:26:59;;;;;;;6.53;4.55;;;;;;;;;;4896586;29;20068;-69
2021/10/14 07:29:27;;;;;;;4.22;3.83;;;;;;;;;;4896630;29;20400;-68
2021/10/14 07:31:54;;;;;;;5.63;3.80;;;;;;;;;;4897780;29;20528;-69
2021/10/14 07:34:21;;;;;;;4.90;3.75;;;;;;;;;;4898455;29;20052;-68
2021/10/14 07:36:48;;;;;;;6.65;3.38;;;;;;;;;;4900385;29;20509;-69
2021/10/14 07:39:14;;;;;;;8.90;3.72;;;;;;;;;;4898490;29;20108;-70
2021/10/14 07:41:41;;;;;;;6.95;4.03;;;;;;;;;;4897846;29;20135;-68
2021/10/14 07:44:07;;;;;;;6.00;3.60;;;;;;;;;;4898344;29;20568;-69
2021/10/14 07:46:34;;;;;;;6.20;3.35;;;;;;;;;;4898131;29;20060;-69
2021/10/14 07:49:03;;;;;;;5.35;3.42;;;;;;;;;;4898044;29;20104;-69
2021/10/14 07:51:30;;;;;;;5.53;3.55;;;;;;;;;;4897986;29;20064;-68
2021/10/14 07:53:56;;;;;;;5.53;3.63;;;;;;;;;;4898119;29;20760;-68
2021/10/14 07:56:23;;;;;;;8.98;4.18;;;;;;;;;;4898086;29;20100;-70
2021/10/14 07:58:50;;;;;;;7.93;3.92;;;;;;;;;;4897675;29;20056;-71
2021/10/14 08:01:16;;;;;;;4.82;4.00;;;;;;;;;;4897779;29;20091;-71
2021/10/14 08:03:44;;;;;;;5.22;3.63;;;;;;;;;;4897871;29;20571;-71
2021/10/14 08:06:11;;;;;;;4.07;3.65;;;;;;;;;;4897824;29;20067;-70
2021/10/14 08:08:38;;;;;;;6.38;4.07;;;;;;;;;;4897415;29;20500;-69
2021/10/14 08:11:05;;;;;;;5.53;3.50;;;;;;;;;;4897912;29;20060;-70
2021/10/14 08:13:31;;;;;;;5.03;3.30;;;;;;;;;;4880590;29;20068;-71
2021/10/14 08:15:59;;;;;;;6.32;3.67;;;;;;;;;;4889918;29;20065;-72
2021/10/14 08:18:27;;;;;;;8.80;3.65;;;;;;;;;;4891182;29;20064;-73
2021/10/14 08:20:57;;;;;;;5.63;3.58;;;;;;;;;;4863757;29;20063;-70
2021/10/14 08:23:33;;;;;;;6.40;3.60;;;;;;;;;;4870225;29;20067;-73
2021/10/14 08:26:01;;;;;;;3.58;3.10;;;;;;;;;;4869023;29;20144;-74
2021/10/14 08:28:31;;;;;;;5.95;3.80;;;;;;;;;;4859340;29;20051;-73
2021/10/14 08:30:59;;;;;;;4.97;3.45;;;;;;;;;;4862081;29;20059;-72
2021/10/14 08:33:27;;;;;;;6.97;3.85;;;;;;;;;;4884203;29;20057;-70
2021/10/14 08:35:57;;;;;;;4.63;3.72;;;;;;;;;;4887053;29;20057;-70
2021/10/14 08:38:24;;;;;;;7.28;4.75;;;;;;;;;;4888826;29;20093;-71
2021/10/14 08:40:52;;;;;;;8.30;3.90;;;;;;;;;;4887256;29;20428;-72
2021/10/14 08:43:21;;;;;;;9.50;3.55;;;;;;;;;;4875796;29;20048;-74
2021/10/14 08:45:49;;;;;;;5.38;3.30;;;;;;;;;;4871569;29;20731;-72
2021/10/14 08:48:17;;;;;;;4.88;3.60;;;;;;;;;;4885626;29;20144;-73
2021/10/14 08:50:46;;;;;;;7.03;3.30;;;;;;;;;;4887235;29;20049;-72
2021/10/14 08:53:15;;;;;;;5.35;4.05;;;;;;;;;;4890470;29;20139;-74
2021/10/14 08:55:42;;;;;;;5.43;3.30;;;;;;;;;;4854531;29;20128;-71
2021/10/14 08:58:11;;;;;;;3.63;3.10;;;;;;;;;;4884323;29;20079;-72
2021/10/14 09:01:06;;;;;;;4.80;3.00;;;;;;;;;;4884222;29;20045;-72
2021/10/14 09:03:45;;;;;;;7.47;3.55;;;;;;;;;;4888964;29;20045;-73
2021/10/14 09:06:12;;;;;;;3.75;3.00;;;;;;;;;;4889801;29;20052;-70
2021/10/14 09:08:41;;;;;;;7.07;3.40;;;;;;;;;;4878631;29;20060;-71
2021/10/14 09:11:12;;;;;;;7.13;3.60;;;;;;;;;;4887959;29;20411;-70
2021/10/14 09:13:53;;;;;;;7.00;3.72;;;;;;;;;;4890161;29;20429;-70
2021/10/14 09:16:29;;;;;;;4.80;3.55;;;;;;;;;;4884900;29;20053;-72
2021/10/14 09:19:18;;;;;;;8.85;4.18;;;;;;;;;;4865684;29;20057;-74
2021/10/14 09:21:49;;;;;;;5.93;2.97;;;;;;;;;;4888454;29;20056;-71
2021/10/14 09:24:30;;;;;;;7.93;4.68;;;;;;;;;;4884776;29;20056;-72
2021/10/14 09:27:01;;;;;;;3.35;2.72;;;;;;;;;;4860736;29;20060;-73
2021/10/14 09:29:29;;;;;;;3.95;3.10;;;;;;;;;;4891301;29;20052;-72
2021/10/14 09:32:00;;;;;;;3.00;2.70;;;;;;;;;;4885082;29;20537;-69
2021/10/14 09:34:43;;;;;;;4.70;3.03;;;;;;;;;;4885599;29;20057;-72
2021/10/14 09:37:16;;;;;;;6.68;3.80;;;;;;;;;;4885670;29;20049;-72
2021/10/14 09:39:58;;;;;;;5.53;3.20;;;;;;;;;;4885683;29;20108;-71
2021/10/14 09:42:54;;;;;;;4.00;2.70;;;;;;;;;;4882511;29;20060;-71
2021/10/14 09:45:30;;;;;;;6.15;3.20;;;;;;;;;;4868425;29;20135;-74
2021/10/14 09:48:02;;;;;;;3.80;3.10;;;;;;;;;;4881971;29;20061;-74
2021/10/14 09:50:33;;;;;;;3.17;2.88;;;;;;;;;;4883745;29;20049;-76
2021/10/14 09:53:00;;;;;;;3.35;2.20;;;;;;;;;;4868200;29;20052;-75
2021/10/14 09:55:27;;;;;;;5.65;2.90;;;;;;;;;;4885595;29;20056;-71
2021/10/14 09:57:55;;;;;;;7.10;2.85;;;;;;;;;;4874727;29;20069;-73
2021/10/14 10:00:23;;;;;;;7.15;3.40;;;;;;;;;;4885235;29;20048;-71
2021/10/14 10:02:50;;;;;;;6.70;2.80;;;;;;;;;;4875883;29;20053;-73
2021/10/14 10:05:18;;;;;;;3.97;2.83;;;;;;;;;;4866834;29;20056;-74
2021/10/14 10:07:45;;;;;;;6.50;2.72;;;;;;;;;;4871158;29;20267;-69
2021/10/14 10:10:11;;;;;;;4.90;2.70;;;;;;;;;;4887742;29;20105;-74
2021/10/14 10:12:38;;;;;;;4.00;2.40;;;;;;;;;;4864068;29;20045;-72
2021/10/14 10:15:06;;;;;;;5.43;2.95;;;;;;;;;;4878015;29;20057;-74
2021/10/14 10:17:38;;;;;;;5.65;3.28;;;;;;;;;;4872153;29;20052;-72
2021/10/14 10:20:11;;;;;;;6.28;3.38;;;;;;;;;;4853803;29;20493;-70
2021/10/14 10:22:41;;;;;;;5.20;2.63;;;;;;;;;;4888315;29;20116;-74
2021/10/14 10:25:26;;;;;;;7.50;2.83;;;;;;;;;;4889068;29;20045;-68
2021/10/14 10:27:54;;;;;;;4.15;2.70;;;;;;;;;;4885545;29;20061;-70
2021/10/14 10:30:32;;;;;;;4.22;2.42;;;;;;;;;;4886609;29;20044;-68
2021/10/14 10:32:59;;;;;;;3.78;2.97;;;;;;;;;;4884931;29;20057;-68
2021/10/14 10:35:39;;;;;;;5.45;2.65;;;;;;;;;;4883614;29;20272;-68
2021/10/14 10:38:26;;;;;;;5.18;2.67;;;;;;;;;;4884554;29;20087;-69
2021/10/14 10:40:55;;;;;;;7.18;2.53;;;;;;;;;;4884294;29;20080;-69
2021/10/14 10:43:26;;;;;;;4.55;3.35;;;;;;;;;;4884918;29;20681;-68
2021/10/14 10:45:55;;;;;;;4.68;2.90;;;;;;;;;;4876087;29;20063;-69
2021/10/14 10:48:41;;;;;;;3.65;2.28;;;;;;;;;;4884808;29;20057;-68
2021/10/14 10:51:08;;;;;;;4.00;2.50;;;;;;;;;;4883867;29;20056;-68
2021/10/14 10:53:40;;;;;;;5.43;2.45;;;;;;;;;;4875994;29;20091;-68
2021/10/14 10:56:26;;;;;;;4.88;2.67;;;;;;;;;;4884777;29;20496;-69
2021/10/14 10:58:53;;;;;;;4.63;3.03;;;;;;;;;;4869237;29;20583;-72
2021/10/14 11:01:19;;;;;;;4.20;2.63;;;;;;;;;;4876138;29;20045;-70
2021/10/14 11:03:56;;;;;;;5.13;2.75;;;;;;;;;;4883781;29;20052;-72
2021/10/14 11:06:23;;;;;;;5.15;2.40;;;;;;;;;;4883605;29;20588;-69
2021/10/14 11:08:51;;;;;;;5.85;2.75;;;;;;;;;;4887379;29;20064;-72
2021/10/14 11:11:21;;;;;;;4.00;2.15;;;;;;;;;;4875188;29;20080;-72
2021/10/14 11:13:51;;;;;;;4.97;2.75;;;;;;;;;;4888524;29;20343;-74
2021/10/14 11:16:19;;;;;;;6.43;2.65;;;;;;;;;;4886873;29;20509;-74
2021/10/14 11:18:48;;;;;;;5.25;2.67;;;;;;;;;;4875754;29;20489;-72
2021/10/14 11:21:35;;;;;;;3.85;2.05;;;;;;;;;;4871182;29;20056;-69
2021/10/14 11:24:02;;;;;;;6.80;3.03;;;;;;;;;;4883739;29;20460;-69
2021/10/14 11:26:38;;;;;;;3.88;2.63;;;;;;;;;;4885663;29;20468;-72
2021/10/14 11:31:58;;;;;;;4.45;2.92;;;;;;;;;;4884400;29;20122;-76
2021/10/14 11:34:26;;;;;;;6.15;3.10;;;;;;;;;;4886571;29;20057;-74
2021/10/14 11:36:54;;;;;;;2.78;2.35;;;;;;;;;;4885719;29;20060;-76
2021/10/14 11:39:23;;;;;;;5.78;2.20;;;;;;;;;;4883962;29;20474;-76
2021/10/14 11:42:01;;;;;;;4.70;2.65;;;;;;;;;;4886662;29;20560;-75
2021/10/14 11:44:33;;;;;;;3.15;2.40;;;;;;;;;;4878884;29;20057;-75
2021/10/14 11:47:00;;;;;;;4.63;2.40;;;;;;;;;;4887463;29;20394;-74
2021/10/14 11:49:27;;;;;;;4.80;2.35;;;;;;;;;;4872615;29;20049;-71
2021/10/14 11:51:54;;;;;;;7.22;2.47;;;;;;;;;;4879030;29;20060;-74
2021/10/14 11:54:21;;;;;;;6.22;2.05;;;;;;;;;;4885820;29;20100;-71
2021/10/14 11:56:52;;;;;;;3.38;2.00;;;;;;;;;;4887406;29;20060;-72
2021/10/14 11:59:24;;;;;;;4.05;1.65;;;;;;;;;;4888599;29;20071;-72
2021/10/14 12:02:08;;;;;;;4.07;2.08;;;;;;;;;;4887428;29;20647;-69
2021/10/14 12:04:47;;;;;;;6.32;2.35;;;;;;;;;;4872576;29;20143;-70
2021/10/14 12:07:28;;;;;;;5.63;2.40;;;;;;;;;;4879721;29;20091;-72
2021/10/14 12:09:57;;;;;;;;;;;;;;;;;;4886861;29;20092;-74
2021/10/14 12:12:28;;;;;;;3.92;1.90;;;;;;;;;;4888269;29;20396;-73
2021/10/14 12:15:15;;;;;;;5.18;2.22;;;;;;;;;;4862874;29;20132;-74
2021/10/14 12:17:44;;;;;;;4.93;2.42;;;;;;;;;;4879276;29;20100;-72
2021/10/14 12:20:15;;;;;;;3.38;1.75;;;;;;;;;;4887281;29;20060;-71
2021/10/14 12:22:46;;;;;;;5.22;1.80;;;;;;;;;;4882925;29;20097;-70
2021/10/14 12:25:13;;;;;;;3.63;1.90;;;;;;;;;;4871470;29;20056;-70
2021/10/14 12:27:40;;;;;;;3.03;1.98;;;;;;;;;;4882273;29;20049;-70
2021/10/14 12:30:35;;;;;;;4.40;2.38;;;;;;;;;;4884692;29;20076;-69
2021/10/14 12:33:10;;;;;;;5.57;2.47;;;;;;;;;;4888207;29;20061;-70
2021/10/14 12:36:00;;;;;;;5.00;1.95;;;;;;;;;;4884845;29;20060;-69
2021/10/14 12:38:40;;;;;;;4.50;1.80;;;;;;;;;;4889062;29;20087;-69
2021/10/14 12:41:13;;;;;;;4.97;1.60;;;;;;;;;;4882879;29;20509;-70
2021/10/14 12:46:28;;;;;;;3.10;1.40;;;;;;;;;;4883319;29;20559;-70
2021/10/14 12:49:40;;;;;;;3.47;1.75;;;;;;;;;;4883197;29;20053;-70
2021/10/14 12:52:15;;;;;;;3.35;1.98;;;;;;;;;;4882906;29;20511;-70
2021/10/14 12:54:42;;;;;;;6.43;1.65;;;;;;;;;;4882720;29;20278;-70
2021/10/14 12:57:09;;;;;;;3.90;1.80;;;;;;;;;;4884879;29;20052;-70
2021/10/14 12:59:38;;;;;;;2.97;1.65;;;;;;;;;;4859887;29;20104;-70
2021/10/14 13:02:05;;;;;;;4.05;2.13;;;;;;;;;;4884373;29;20060;-70
2021/10/14 13:04:32;;;;;;;3.63;2.05;;;;;;;;;;4866824;29;20053;-70
2021/10/14 13:06:59;;;;;;;5.90;2.30;;;;;;;;;;4883997;29;20481;-70
2021/10/14 13:09:28;;;;;;;3.95;2.65;;;;;;;;;;4883655;29;20068;-70
2021/10/14 13:11:55;;;;;;;3.15;1.60;;;;;;;;;;4883024;29;20048;-71
2021/10/14 13:14:24;;;;;;;3.88;1.35;;;;;;;;;;4884159;29;20053;-70
2021/10/14 13:16:50;;;;;;;4.63;1.48;;;;;;;;;;4882175;29;20573;-71
2021/10/14 13:19:17;;;;;;;3.15;1.25;;;;;;;;;;4877904;29;20048;-70
2021/10/14 13:21:44;;;;;;;3.00;1.33;;;;;;;;;;4881695;29;20113;-70
2021/10/14 13:24:11;;;;;;;5.05;1.77;;;;;;;;;;4885372;29;20051;-70
2021/10/14 13:26:37;;;;;;;4.18;1.50;;;;;;;;;;4882382;29;20131;-71
2021/10/14 13:29:05;;;;;;;5.60;1.73;;;;;;;;;;4884159;29;20624;-70
2021/10/14 13:31:32;;;;;;;5.90;1.60;;;;;;;;;;4882362;29;20045;-71
2021/10/14 13:33:59;;;;;;;2.58;1.30;;;;;;;;;;4884401;29;20191;-71
2021/10/14 13:36:26;;;;;;;4.25;1.73;;;;;;;;;;4884996;29;20105;-71
2021/10/14 13:38:54;;;;;;;3.22;1.40;;;;;;;;;;4886309;29;20061;-70
2021/10/14 13:41:24;;;;;;;3.22;1.70;;;;;;;;;;4887254;29;20497;-71
2021/10/14 13:46:25;;;;;;;3.72;1.33;;;;;;;;;;4888409;29;20049;-71
2021/10/14 13:48:51;;;;;;;2.83;1.80;;;;;;;;;;4886043;29;20061;-71
2021/10/14 13:51:18;;;;;;;3.17;1.45;;;;;;;;;;4887625;29;20044;-71
2021/10/14 13:53:45;;;;;;;2.10;1.02;;;;;;;;;;4878892;29;20057;-71
2021/10/14 13:56:11;;;;;;;4.45;1.38;;;;;;;;;;4887559;29;20049;-70
2021/10/14 13:58:38;;;;;;;2.15;1.20;;;;;;;;;;4885665;29;20462;-71
2021/10/14 14:01:05;;;;;;;3.47;1.38;;;;;;;;;;4887731;29;20053;-70
2021/10/14 14:03:47;;;;;;;3.38;1.42;;;;;;;;;;4890251;29;20059;-70
2021/10/14 14:06:14;;;;;;;5.20;2.42;;;;;;;;;;4888687;29;20049;-70
2021/10/14 14:08:40;;;;;;;8.63;1.80;;;;;;;;;;4887516;29;20598;-71
2021/10/14 14:11:09;;;;;;;5.22;1.50;;;;;;;;;;4887000;29;20101;-72
2021/10/14 14:13:36;;;;;;;2.53;1.35;;;;;;;;;;4869192;29;20056;-73
2021/10/14 14:16:03;;;;;;;2.70;1.40;;;;;;;;;;4884632;29;20154;-72
2021/10/14 14:18:29;;;;;;;2.83;1.25;;;;;;;;;;4887788;29;20120;-73
2021/10/14 14:20:56;;;;;;;3.63;1.45;;;;;;;;;;4886320;29;20116;-71
2021/10/14 14:23:22;;;;;;;2.15;1.30;;;;;;;;;;4891889;29;20556;-72
2021/10/14 14:25:49;;;;;;;2.38;1.35;;;;;;;;;;4870249;29;20061;-73
2021/10/14 14:28:16;;;;;;;4.43;1.63;;;;;;;;;;4886643;29;20766;-71
2021/10/14 14:30:43;;;;;;;4.88;1.35;;;;;;;;;;4885772;29;20053;-72
2021/10/14 14:33:10;;;;;;;3.20;1.20;;;;;;;;;;4890412;29;20139;-75
2021/10/14 14:35:37;;;;;;;2.83;1.30;;;;;;;;;;4869438;29;20104;-75
2021/10/14 14:38:04;;;;;;;4.22;1.77;;;;;;;;;;4889144;29;20061;-73
2021/10/14 14:40:31;;;;;;;3.75;1.80;;;;;;;;;;4890916;29;20145;-74
2021/10/14 14:42:57;;;;;;;3.55;1.90;;;;;;;;;;4883544;29;20128;-72
2021/10/14 14:45:25;;;;;;;6.03;3.10;;;;;;;;;;4889530;29;20105;-77
2021/10/14 14:47:53;;;;;;;4.80;1.58;;;;;;;;;;4868695;29;20065;-72
2021/10/14 14:52:52;;;;;;;2.22;1.35;;;;;;;;;;4869359;29;20536;-76
2021/10/14 14:55:19;;;;;;;3.75;1.50;;;;;;;;;;4891557;29;20139;-77
2021/10/14 14:57:46;;;;;;;3.05;1.20;;;;;;;;;;4870849;29;20120;-79
2021/10/14 15:00:13;;;;;;;3.63;1.50;;;;;;;;;;4893040;29;20065;-71